CheckWX is a tool to help pilots better visualize weather data.  It is not intended as a substitute for an official pre-flight weather briefing.

20:21:52 UTC

LRTM TAF
Transilvania Târgu Mureş International Airport
Târgu Mureş, Romania
TAF LRTM 251400Z 2515/2524 VRB04KT CAVOK

Jun-25@
15:00 UTC

Jun-25 @ 15:00 UTC

Jun-26@
00:00 UTC

Jun-26 @ 00:00 UTC

TAF LRTM 251400Z 2515/2524 VRB04KT CAVOK
Wind
  • Variable at 4 KTS
Conditions
No significant weather
Cloud Levels
  • No significant clouds